sensor_id;sensor_type;location;lat;lon;timestamp;temperature;humidity
48686;DHT22;34485;51.536;3.816;2023-07-29T00:01:11;16.90;99.90
48686;DHT22;34485;51.536;3.816;2023-07-29T00:03:37;16.90;99.90
48686;DHT22;34485;51.536;3.816;2023-07-29T00:06:03;16.90;99.90
48686;DHT22;34485;51.536;3.816;2023-07-29T00:08:29;16.90;99.90
48686;DHT22;34485;51.536;3.816;2023-07-29T00:10:54;16.90;99.90
48686;DHT22;34485;51.536;3.816;2023-07-29T00:13:20;16.90;99.90
48686;DHT22;34485;51.536;3.816;2023-07-29T00:15:46;16.80;99.90
48686;DHT22;34485;51.536;3.816;2023-07-29T00:18:11;16.80;99.90
48686;DHT22;34485;51.536;3.816;2023-07-29T00:20:37;16.80;99.90
48686;DHT22;34485;51.536;3.816;2023-07-29T00:23:03;16.80;99.90
48686;DHT22;34485;51.536;3.816;2023-07-29T00:25:28;16.80;99.90
48686;DHT22;34485;51.536;3.816;2023-07-29T00:27:57;16.80;99.90
48686;DHT22;34485;51.536;3.816;2023-07-29T00:30:24;16.80;99.90
48686;DHT22;34485;51.536;3.816;2023-07-29T00:32:49;16.80;99.90
48686;DHT22;34485;51.536;3.816;2023-07-29T00:35:15;16.80;99.90
48686;DHT22;34485;51.536;3.816;2023-07-29T00:37:40;16.80;99.90
48686;DHT22;34485;51.536;3.816;2023-07-29T00:40:12;16.80;99.90
48686;DHT22;34485;51.536;3.816;2023-07-29T00:42:39;16.80;99.90
48686;DHT22;34485;51.536;3.816;2023-07-29T00:45:06;16.80;99.90
48686;DHT22;34485;51.536;3.816;2023-07-29T00:47:33;16.80;99.90
48686;DHT22;34485;51.536;3.816;2023-07-29T00:49:58;16.70;99.90
48686;DHT22;34485;51.536;3.816;2023-07-29T00:52:24;16.70;99.90
48686;DHT22;34485;51.536;3.816;2023-07-29T00:54:50;16.70;99.90
48686;DHT22;34485;51.536;3.816;2023-07-29T00:57:16;16.70;99.90
48686;DHT22;34485;51.536;3.816;2023-07-29T00:59:43;16.60;99.90
48686;DHT22;34485;51.536;3.816;2023-07-29T01:02:09;16.60;99.90
48686;DHT22;34485;51.536;3.816;2023-07-29T01:04:35;16.60;99.90
48686;DHT22;34485;51.536;3.816;2023-07-29T01:09:55;16.60;99.90
48686;DHT22;34485;51.536;3.816;2023-07-29T01:12:42;16.60;99.90
48686;DHT22;34485;51.536;3.816;2023-07-29T01:15:43;16.60;99.90
48686;DHT22;34485;51.536;3.816;2023-07-29T01:18:18;16.60;99.90
48686;DHT22;34485;51.536;3.816;2023-07-29T01:20:47;16.60;99.90
48686;DHT22;34485;51.536;3.816;2023-07-29T01:23:13;16.60;99.90
48686;DHT22;34485;51.536;3.816;2023-07-29T01:25:40;16.60;99.90
48686;DHT22;34485;51.536;3.816;2023-07-29T01:28:06;16.60;99.90
48686;DHT22;34485;51.536;3.816;2023-07-29T01:30:39;16.60;99.90
48686;DHT22;34485;51.536;3.816;2023-07-29T01:33:20;16.50;99.90
48686;DHT22;34485;51.536;3.816;2023-07-29T01:35:54;16.50;99.90
48686;DHT22;34485;51.536;3.816;2023-07-29T01:38:27;16.50;99.90
48686;DHT22;34485;51.536;3.816;2023-07-29T01:40:57;16.60;99.90
48686;DHT22;34485;51.536;3.816;2023-07-29T01:43:23;16.60;99.90
48686;DHT22;34485;51.536;3.816;2023-07-29T01:45:51;16.60;99.90
48686;DHT22;34485;51.536;3.816;2023-07-29T01:48:16;16.60;99.90
48686;DHT22;34485;51.536;3.816;2023-07-29T01:50:42;16.60;99.90
48686;DHT22;34485;51.536;3.816;2023-07-29T01:53:08;16.60;99.90
48686;DHT22;34485;51.536;3.816;2023-07-29T01:55:34;16.60;99.90
48686;DHT22;34485;51.536;3.816;2023-07-29T01:57:59;16.60;99.90
48686;DHT22;34485;51.536;3.816;2023-07-29T02:00:25;16.60;99.90
48686;DHT22;34485;51.536;3.816;2023-07-29T02:02:50;16.60;99.90
48686;DHT22;34485;51.536;3.816;2023-07-29T02:05:16;16.60;99.90
48686;DHT22;34485;51.536;3.816;2023-07-29T02:07:41;16.60;99.90
48686;DHT22;34485;51.536;3.816;2023-07-29T02:10:08;16.60;99.90
48686;DHT22;34485;51.536;3.816;2023-07-29T02:12:33;16.60;99.90
48686;DHT22;34485;51.536;3.816;2023-07-29T02:14:59;16.60;99.90
48686;DHT22;34485;51.536;3.816;2023-07-29T02:17:25;16.70;99.90
48686;DHT22;34485;51.536;3.816;2023-07-29T02:19:51;16.70;99.90
48686;DHT22;34485;51.536;3.816;2023-07-29T02:22:17;16.70;99.90
48686;DHT22;34485;51.536;3.816;2023-07-29T02:24:44;16.70;99.90
48686;DHT22;34485;51.536;3.816;2023-07-29T02:27:10;16.70;99.90
48686;DHT22;34485;51.536;3.816;2023-07-29T02:29:36;16.70;99.90
48686;DHT22;34485;51.536;3.816;2023-07-29T02:32:02;16.70;99.90
48686;DHT22;34485;51.536;3.816;2023-07-29T02:34:28;16.70;99.90
48686;DHT22;34485;51.536;3.816;2023-07-29T02:36:54;16.70;99.90
48686;DHT22;34485;51.536;3.816;2023-07-29T02:39:20;16.70;99.90
48686;DHT22;34485;51.536;3.816;2023-07-29T02:41:45;16.70;99.90
48686;DHT22;34485;51.536;3.816;2023-07-29T02:44:11;16.70;99.90
48686;DHT22;34485;51.536;3.816;2023-07-29T02:46:37;16.60;99.90
48686;DHT22;34485;51.536;3.816;2023-07-29T02:49:03;16.60;99.90
48686;DHT22;34485;51.536;3.816;2023-07-29T02:51:30;16.60;99.90
48686;DHT22;34485;51.536;3.816;2023-07-29T02:53:55;16.60;99.90
48686;DHT22;34485;51.536;3.816;2023-07-29T02:56:21;16.60;99.90
48686;DHT22;34485;51.536;3.816;2023-07-29T02:58:46;16.60;99.90
48686;DHT22;34485;51.536;3.816;2023-07-29T03:01:12;16.60;99.90
48686;DHT22;34485;51.536;3.816;2023-07-29T03:03:38;16.60;99.90
48686;DHT22;34485;51.536;3.816;2023-07-29T03:06:06;16.50;99.90
48686;DHT22;34485;51.536;3.816;2023-07-29T03:08:32;16.60;99.90
48686;DHT22;34485;51.536;3.816;2023-07-29T03:10:58;16.50;99.90
48686;DHT22;34485;51.536;3.816;2023-07-29T03:13:24;16.50;99.90
48686;DHT22;34485;51.536;3.816;2023-07-29T03:15:51;16.50;99.90
48686;DHT22;34485;51.536;3.816;2023-07-29T03:18:16;16.50;99.90
48686;DHT22;34485;51.536;3.816;2023-07-29T03:20:42;16.50;99.90
48686;DHT22;34485;51.536;3.816;2023-07-29T03:23:08;16.50;99.90
48686;DHT22;34485;51.536;3.816;2023-07-29T03:25:33;16.50;99.90
48686;DHT22;34485;51.536;3.816;2023-07-29T03:27:59;16.50;99.90
48686;DHT22;34485;51.536;3.816;2023-07-29T03:30:24;16.50;99.90
48686;DHT22;34485;51.536;3.816;2023-07-29T03:32:50;16.50;99.90
48686;DHT22;34485;51.536;3.816;2023-07-29T03:35:16;16.50;99.90
48686;DHT22;34485;51.536;3.816;2023-07-29T03:37:42;16.50;99.90
48686;DHT22;34485;51.536;3.816;2023-07-29T03:40:08;16.50;99.90
48686;DHT22;34485;51.536;3.816;2023-07-29T03:42:37;16.50;99.90
48686;DHT22;34485;51.536;3.816;2023-07-29T03:45:02;16.50;99.90
48686;DHT22;34485;51.536;3.816;2023-07-29T03:47:28;16.60;99.90
48686;DHT22;34485;51.536;3.816;2023-07-29T03:49:54;16.60;99.90
48686;DHT22;34485;51.536;3.816;2023-07-29T03:52:19;16.60;99.90
48686;DHT22;34485;51.536;3.816;2023-07-29T03:54:45;16.70;99.90
48686;DHT22;34485;51.536;3.816;2023-07-29T03:57:11;16.70;99.90
48686;DHT22;34485;51.536;3.816;2023-07-29T03:59:36;16.80;99.90
48686;DHT22;34485;51.536;3.816;2023-07-29T04:02:02;16.80;99.90
48686;DHT22;34485;51.536;3.816;2023-07-29T04:04:28;16.80;99.90
48686;DHT22;34485;51.536;3.816;2023-07-29T04:06:53;16.90;99.90
48686;DHT22;34485;51.536;3.816;2023-07-29T04:09:19;16.90;99.90
48686;DHT22;34485;51.536;3.816;2023-07-29T04:11:44;16.90;99.90
48686;DHT22;34485;51.536;3.816;2023-07-29T04:14:10;17.00;99.90
48686;DHT22;34485;51.536;3.816;2023-07-29T04:16:36;17.00;99.90
48686;DHT22;34485;51.536;3.816;2023-07-29T04:19:01;17.00;99.90
48686;DHT22;34485;51.536;3.816;2023-07-29T04:21:27;17.10;99.90
48686;DHT22;34485;51.536;3.816;2023-07-29T04:23:52;17.10;99.90
48686;DHT22;34485;51.536;3.816;2023-07-29T04:26:18;17.10;99.90
48686;DHT22;34485;51.536;3.816;2023-07-29T04:28:43;17.10;99.90
48686;DHT22;34485;51.536;3.816;2023-07-29T04:31:09;17.20;99.90
48686;DHT22;34485;51.536;3.816;2023-07-29T04:33:35;17.20;99.90
48686;DHT22;34485;51.536;3.816;2023-07-29T04:36:00;17.20;99.90
48686;DHT22;34485;51.536;3.816;2023-07-29T04:38:32;17.20;99.90
48686;DHT22;34485;51.536;3.816;2023-07-29T04:40:58;17.20;99.90
48686;DHT22;34485;51.536;3.816;2023-07-29T04:43:30;17.10;99.90
48686;DHT22;34485;51.536;3.816;2023-07-29T04:45:56;17.00;99.90
48686;DHT22;34485;51.536;3.816;2023-07-29T04:48:22;17.00;99.90
48686;DHT22;34485;51.536;3.816;2023-07-29T04:50:48;16.90;99.90
48686;DHT22;34485;51.536;3.816;2023-07-29T04:53:13;16.90;99.90
48686;DHT22;34485;51.536;3.816;2023-07-29T04:55:42;16.90;99.90
48686;DHT22;34485;51.536;3.816;2023-07-29T04:58:08;16.90;99.90
48686;DHT22;34485;51.536;3.816;2023-07-29T05:00:34;16.90;99.90
48686;DHT22;34485;51.536;3.816;2023-07-29T05:02:59;16.90;99.90
48686;DHT22;34485;51.536;3.816;2023-07-29T05:05:26;16.90;99.90
48686;DHT22;34485;51.536;3.816;2023-07-29T05:07:52;16.90;99.90
48686;DHT22;34485;51.536;3.816;2023-07-29T05:10:18;16.90;99.90
48686;DHT22;34485;51.536;3.816;2023-07-29T05:12:43;16.90;99.90
48686;DHT22;34485;51.536;3.816;2023-07-29T05:15:09;17.00;99.90
48686;DHT22;34485;51.536;3.816;2023-07-29T05:17:35;17.10;99.90
48686;DHT22;34485;51.536;3.816;2023-07-29T05:20:00;17.10;99.90
48686;DHT22;34485;51.536;3.816;2023-07-29T05:22:26;17.20;99.90
48686;DHT22;34485;51.536;3.816;2023-07-29T05:24:52;17.20;99.90
48686;DHT22;34485;51.536;3.816;2023-07-29T05:27:17;17.30;99.90
48686;DHT22;34485;51.536;3.816;2023-07-29T05:29:43;17.30;99.90
48686;DHT22;34485;51.536;3.816;2023-07-29T05:32:08;17.30;99.90
48686;DHT22;34485;51.536;3.816;2023-07-29T05:34:34;17.40;99.90
48686;DHT22;34485;51.536;3.816;2023-07-29T05:36:59;17.50;99.90
48686;DHT22;34485;51.536;3.816;2023-07-29T05:39:25;17.70;99.90
48686;DHT22;34485;51.536;3.816;2023-07-29T05:41:51;18.00;99.90
48686;DHT22;34485;51.536;3.816;2023-07-29T05:44:16;18.10;99.90
48686;DHT22;34485;51.536;3.816;2023-07-29T05:46:42;18.20;99.90
48686;DHT22;34485;51.536;3.816;2023-07-29T05:49:07;18.30;99.90
48686;DHT22;34485;51.536;3.816;2023-07-29T05:51:33;18.30;99.90
48686;DHT22;34485;51.536;3.816;2023-07-29T05:53:58;18.30;99.90
48686;DHT22;34485;51.536;3.816;2023-07-29T05:56:24;18.30;99.90
48686;DHT22;34485;51.536;3.816;2023-07-29T05:58:50;18.30;99.90
48686;DHT22;34485;51.536;3.816;2023-07-29T06:01:15;18.30;99.90
48686;DHT22;34485;51.536;3.816;2023-07-29T06:03:41;18.20;99.90
48686;DHT22;34485;51.536;3.816;2023-07-29T06:06:07;18.20;99.90
48686;DHT22;34485;51.536;3.816;2023-07-29T06:08:33;18.30;99.90
48686;DHT22;34485;51.536;3.816;2023-07-29T06:11:00;18.30;99.90
48686;DHT22;34485;51.536;3.816;2023-07-29T06:13:25;18.40;99.90
48686;DHT22;34485;51.536;3.816;2023-07-29T06:15:51;18.50;99.90
48686;DHT22;34485;51.536;3.816;2023-07-29T06:18:16;18.60;99.90
48686;DHT22;34485;51.536;3.816;2023-07-29T06:20:42;18.70;99.90
48686;DHT22;34485;51.536;3.816;2023-07-29T06:23:08;18.80;99.90
48686;DHT22;34485;51.536;3.816;2023-07-29T06:25:34;18.90;99.90
48686;DHT22;34485;51.536;3.816;2023-07-29T06:27:59;19.00;99.90
48686;DHT22;34485;51.536;3.816;2023-07-29T06:30:25;19.00;99.90
48686;DHT22;34485;51.536;3.816;2023-07-29T06:32:51;19.00;99.90
48686;DHT22;34485;51.536;3.816;2023-07-29T06:35:16;19.10;99.90
48686;DHT22;34485;51.536;3.816;2023-07-29T06:37:42;19.20;99.90
48686;DHT22;34485;51.536;3.816;2023-07-29T06:40:08;19.30;99.90
48686;DHT22;34485;51.536;3.816;2023-07-29T06:42:34;19.50;99.90
48686;DHT22;34485;51.536;3.816;2023-07-29T06:44:59;19.70;99.90
48686;DHT22;34485;51.536;3.816;2023-07-29T06:47:25;19.80;99.90
48686;DHT22;34485;51.536;3.816;2023-07-29T06:49:50;19.90;99.90
48686;DHT22;34485;51.536;3.816;2023-07-29T06:52:16;19.80;99.90
48686;DHT22;34485;51.536;3.816;2023-07-29T06:54:42;19.80;99.90
48686;DHT22;34485;51.536;3.816;2023-07-29T06:57:07;19.70;99.90
48686;DHT22;34485;51.536;3.816;2023-07-29T06:59:33;19.70;99.90
48686;DHT22;34485;51.536;3.816;2023-07-29T07:01:59;19.80;99.90
48686;DHT22;34485;51.536;3.816;2023-07-29T07:04:25;20.10;99.90
48686;DHT22;34485;51.536;3.816;2023-07-29T07:06:51;20.20;99.90
48686;DHT22;34485;51.536;3.816;2023-07-29T07:09:16;20.40;99.90
48686;DHT22;34485;51.536;3.816;2023-07-29T07:11:42;20.60;99.90
48686;DHT22;34485;51.536;3.816;2023-07-29T07:14:07;20.70;99.60
48686;DHT22;34485;51.536;3.816;2023-07-29T07:16:33;20.60;99.70
48686;DHT22;34485;51.536;3.816;2023-07-29T07:19:00;20.60;99.70
48686;DHT22;34485;51.536;3.816;2023-07-29T07:21:26;20.50;99.90
48686;DHT22;34485;51.536;3.816;2023-07-29T07:23:51;20.50;99.90
48686;DHT22;34485;51.536;3.816;2023-07-29T07:26:17;20.60;99.80
48686;DHT22;34485;51.536;3.816;2023-07-29T07:28:43;20.70;99.20
48686;DHT22;34485;51.536;3.816;2023-07-29T07:31:08;20.90;99.00
48686;DHT22;34485;51.536;3.816;2023-07-29T07:33:34;21.10;99.40
48686;DHT22;34485;51.536;3.816;2023-07-29T07:35:59;21.70;97.80
48686;DHT22;34485;51.536;3.816;2023-07-29T07:38:25;22.30;95.30
48686;DHT22;34485;51.536;3.816;2023-07-29T07:40:56;23.10;95.30
48686;DHT22;34485;51.536;3.816;2023-07-29T07:45:49;24.70;89.10
48686;DHT22;34485;51.536;3.816;2023-07-29T07:48:14;24.90;89.70
48686;DHT22;34485;51.536;3.816;2023-07-29T07:50:42;24.70;88.20
48686;DHT22;34485;51.536;3.816;2023-07-29T07:53:08;24.80;88.20
48686;DHT22;34485;51.536;3.816;2023-07-29T07:55:33;24.70;89.10
48686;DHT22;34485;51.536;3.816;2023-07-29T07:57:59;24.50;86.80
48686;DHT22;34485;51.536;3.816;2023-07-29T08:00:24;24.50;86.80
48686;DHT22;34485;51.536;3.816;2023-07-29T08:02:50;24.50;88.80
48686;DHT22;34485;51.536;3.816;2023-07-29T08:05:15;24.20;88.50
48686;DHT22;34485;51.536;3.816;2023-07-29T08:07:41;24.00;89.60
48686;DHT22;34485;51.536;3.816;2023-07-29T08:10:07;23.80;90.00
48686;DHT22;34485;51.536;3.816;2023-07-29T08:12:32;23.70;90.20
48686;DHT22;34485;51.536;3.816;2023-07-29T08:14:58;23.40;90.50
48686;DHT22;34485;51.536;3.816;2023-07-29T08:17:24;23.30;90.80
48686;DHT22;34485;51.536;3.816;2023-07-29T08:19:49;23.30;91.00
48686;DHT22;34485;51.536;3.816;2023-07-29T08:22:15;23.10;90.90
48686;DHT22;34485;51.536;3.816;2023-07-29T08:24:42;22.80;91.90
48686;DHT22;34485;51.536;3.816;2023-07-29T08:27:08;22.60;91.50
48686;DHT22;34485;51.536;3.816;2023-07-29T08:29:33;22.40;92.60
48686;DHT22;34485;51.536;3.816;2023-07-29T08:31:59;22.30;94.00
48686;DHT22;34485;51.536;3.816;2023-07-29T08:34:24;22.40;94.30
48686;DHT22;34485;51.536;3.816;2023-07-29T08:36:50;22.50;95.40
48686;DHT22;34485;51.536;3.816;2023-07-29T08:39:16;22.70;95.30
48686;DHT22;34485;51.536;3.816;2023-07-29T08:42:00;22.80;94.70
48686;DHT22;34485;51.536;3.816;2023-07-29T08:44:31;23.00;94.50
48686;DHT22;34485;51.536;3.816;2023-07-29T08:47:00;23.00;94.80
48686;DHT22;34485;51.536;3.816;2023-07-29T08:49:26;23.20;94.70
48686;DHT22;34485;51.536;3.816;2023-07-29T08:51:53;23.50;94.00
48686;DHT22;34485;51.536;3.816;2023-07-29T08:54:20;23.70;93.40
48686;DHT22;34485;51.536;3.816;2023-07-29T08:56:46;23.70;92.90
48686;DHT22;34485;51.536;3.816;2023-07-29T08:59:12;23.70;92.90
48686;DHT22;34485;51.536;3.816;2023-07-29T09:01:39;23.60;92.50
48686;DHT22;34485;51.536;3.816;2023-07-29T09:04:04;23.50;92.80
48686;DHT22;34485;51.536;3.816;2023-07-29T09:06:31;23.40;92.70
48686;DHT22;34485;51.536;3.816;2023-07-29T09:08:58;23.20;92.80
48686;DHT22;34485;51.536;3.816;2023-07-29T09:11:24;23.00;93.10
48686;DHT22;34485;51.536;3.816;2023-07-29T09:13:50;22.80;93.90
48686;DHT22;34485;51.536;3.816;2023-07-29T09:16:16;22.60;94.70
48686;DHT22;34485;51.536;3.816;2023-07-29T09:18:41;22.40;95.10
48686;DHT22;34485;51.536;3.816;2023-07-29T09:21:07;22.20;96.00
48686;DHT22;34485;51.536;3.816;2023-07-29T09:23:44;21.90;97.10
48686;DHT22;34485;51.536;3.816;2023-07-29T09:26:10;21.60;98.30
48686;DHT22;34485;51.536;3.816;2023-07-29T09:28:37;21.40;99.10
48686;DHT22;34485;51.536;3.816;2023-07-29T09:31:03;21.20;99.90
48686;DHT22;34485;51.536;3.816;2023-07-29T09:33:30;20.90;99.90
48686;DHT22;34485;51.536;3.816;2023-07-29T09:36:00;20.70;99.90
48686;DHT22;34485;51.536;3.816;2023-07-29T09:38:29;20.40;99.90
48686;DHT22;34485;51.536;3.816;2023-07-29T09:40:56;20.30;99.90
48686;DHT22;34485;51.536;3.816;2023-07-29T09:43:40;20.10;99.90
48686;DHT22;34485;51.536;3.816;2023-07-29T09:46:06;19.80;99.90
48686;DHT22;34485;51.536;3.816;2023-07-29T09:48:42;19.70;99.90
48686;DHT22;34485;51.536;3.816;2023-07-29T09:51:12;19.50;99.90
48686;DHT22;34485;51.536;3.816;2023-07-29T09:53:43;19.30;99.90
48686;DHT22;34485;51.536;3.816;2023-07-29T09:56:09;19.20;99.90
48686;DHT22;34485;51.536;3.816;2023-07-29T09:58:35;19.10;99.90
48686;DHT22;34485;51.536;3.816;2023-07-29T10:01:04;19.00;99.90
48686;DHT22;34485;51.536;3.816;2023-07-29T10:03:30;19.00;99.90
48686;DHT22;34485;51.536;3.816;2023-07-29T10:06:02;19.00;99.90
48686;DHT22;34485;51.536;3.816;2023-07-29T10:08:32;19.00;99.90
48686;DHT22;34485;51.536;3.816;2023-07-29T10:11:01;19.00;99.90
48686;DHT22;34485;51.536;3.816;2023-07-29T10:13:27;19.00;99.90
48686;DHT22;34485;51.536;3.816;2023-07-29T10:15:56;19.20;99.90
48686;DHT22;34485;51.536;3.816;2023-07-29T10:18:23;19.40;99.90
48686;DHT22;34485;51.536;3.816;2023-07-29T10:20:52;19.80;99.90
48686;DHT22;34485;51.536;3.816;2023-07-29T10:23:21;20.10;99.90
48686;DHT22;34485;51.536;3.816;2023-07-29T10:25:51;20.40;99.90
48686;DHT22;34485;51.536;3.816;2023-07-29T10:28:20;20.50;99.90
48686;DHT22;34485;51.536;3.816;2023-07-29T10:30:48;20.70;99.90
48686;DHT22;34485;51.536;3.816;2023-07-29T10:33:15;20.80;99.90
48686;DHT22;34485;51.536;3.816;2023-07-29T10:35:42;20.90;99.90
48686;DHT22;34485;51.536;3.816;2023-07-29T10:38:08;21.10;99.90
48686;DHT22;34485;51.536;3.816;2023-07-29T10:41:03;21.20;99.90
48686;DHT22;34485;51.536;3.816;2023-07-29T10:43:33;21.30;99.90
48686;DHT22;34485;51.536;3.816;2023-07-29T10:51:23;21.30;99.90
48686;DHT22;34485;51.536;3.816;2023-07-29T10:53:59;21.40;99.90
48686;DHT22;34485;51.536;3.816;2023-07-29T10:56:31;21.50;99.90
48686;DHT22;34485;51.536;3.816;2023-07-29T11:01:56;21.80;99.90
48686;DHT22;34485;51.536;3.816;2023-07-29T11:04:22;22.00;99.90
48686;DHT22;34485;51.536;3.816;2023-07-29T11:10:00;21.80;99.90
48686;DHT22;34485;51.536;3.816;2023-07-29T11:15:27;21.80;99.90
48686;DHT22;34485;51.536;3.816;2023-07-29T11:17:54;21.90;99.90
48686;DHT22;34485;51.536;3.816;2023-07-29T11:20:24;22.00;99.90
48686;DHT22;34485;51.536;3.816;2023-07-29T11:22:51;22.20;99.90
48686;DHT22;34485;51.536;3.816;2023-07-29T11:25:17;22.30;99.70
48686;DHT22;34485;51.536;3.816;2023-07-29T11:27:43;22.70;99.90
48686;DHT22;34485;51.536;3.816;2023-07-29T11:30:11;23.20;98.90
48686;DHT22;34485;51.536;3.816;2023-07-29T11:32:38;23.50;95.30
48686;DHT22;34485;51.536;3.816;2023-07-29T11:35:16;23.70;93.20
48686;DHT22;34485;51.536;3.816;2023-07-29T11:37:45;23.90;95.00
48686;DHT22;34485;51.536;3.816;2023-07-29T11:40:19;24.60;93.10
48686;DHT22;34485;51.536;3.816;2023-07-29T11:42:46;25.00;90.40
48686;DHT22;34485;51.536;3.816;2023-07-29T11:45:13;25.40;91.70
48686;DHT22;34485;51.536;3.816;2023-07-29T11:47:39;25.80;90.50
48686;DHT22;34485;51.536;3.816;2023-07-29T11:50:07;26.00;86.30
48686;DHT22;34485;51.536;3.816;2023-07-29T11:52:39;25.90;90.60
48686;DHT22;34485;51.536;3.816;2023-07-29T11:55:05;26.30;87.60
48686;DHT22;34485;51.536;3.816;2023-07-29T11:57:33;26.70;86.60
48686;DHT22;34485;51.536;3.816;2023-07-29T12:00:02;26.60;84.70
48686;DHT22;34485;51.536;3.816;2023-07-29T12:02:29;26.70;82.80
48686;DHT22;34485;51.536;3.816;2023-07-29T12:04:55;26.30;80.10
48686;DHT22;34485;51.536;3.816;2023-07-29T12:07:22;26.20;81.50
48686;DHT22;34485;51.536;3.816;2023-07-29T12:09:49;26.30;84.30
48686;DHT22;34485;51.536;3.816;2023-07-29T12:12:15;26.40;81.20
48686;DHT22;34485;51.536;3.816;2023-07-29T12:14:45;26.50;81.20
48686;DHT22;34485;51.536;3.816;2023-07-29T12:17:12;26.60;80.40
48686;DHT22;34485;51.536;3.816;2023-07-29T12:19:38;26.60;79.90
48686;DHT22;34485;51.536;3.816;2023-07-29T12:22:05;26.60;81.40
48686;DHT22;34485;51.536;3.816;2023-07-29T12:24:32;26.30;78.50
48686;DHT22;34485;51.536;3.816;2023-07-29T12:26:59;26.20;79.90
48686;DHT22;34485;51.536;3.816;2023-07-29T12:29:25;26.10;81.10
48686;DHT22;34485;51.536;3.816;2023-07-29T12:32:01;26.10;79.80
48686;DHT22;34485;51.536;3.816;2023-07-29T12:34:27;26.00;81.60
48686;DHT22;34485;51.536;3.816;2023-07-29T12:36:54;26.00;80.20
48686;DHT22;34485;51.536;3.816;2023-07-29T12:39:28;25.90;79.60
48686;DHT22;34485;51.536;3.816;2023-07-29T12:41:56;25.80;78.30
48686;DHT22;34485;51.536;3.816;2023-07-29T12:44:23;25.60;83.10
48686;DHT22;34485;51.536;3.816;2023-07-29T12:46:50;25.60;81.50
48686;DHT22;34485;51.536;3.816;2023-07-29T12:49:17;25.60;81.10
48686;DHT22;34485;51.536;3.816;2023-07-29T12:51:42;25.60;84.00
48686;DHT22;34485;51.536;3.816;2023-07-29T12:54:08;25.80;84.20
48686;DHT22;34485;51.536;3.816;2023-07-29T12:56:34;26.00;84.70
48686;DHT22;34485;51.536;3.816;2023-07-29T12:59:00;26.20;80.80
48686;DHT22;34485;51.536;3.816;2023-07-29T13:01:27;26.10;80.50
48686;DHT22;34485;51.536;3.816;2023-07-29T13:03:53;26.10;78.70
48686;DHT22;34485;51.536;3.816;2023-07-29T13:06:18;26.10;79.50
48686;DHT22;34485;51.536;3.816;2023-07-29T13:08:44;25.90;78.90
48686;DHT22;34485;51.536;3.816;2023-07-29T13:11:10;25.70;80.70
48686;DHT22;34485;51.536;3.816;2023-07-29T13:13:36;25.60;81.80
48686;DHT22;34485;51.536;3.816;2023-07-29T13:16:02;25.50;82.30
48686;DHT22;34485;51.536;3.816;2023-07-29T13:18:28;25.60;81.10
48686;DHT22;34485;51.536;3.816;2023-07-29T13:20:54;25.80;81.70
48686;DHT22;34485;51.536;3.816;2023-07-29T13:23:20;25.60;80.00
48686;DHT22;34485;51.536;3.816;2023-07-29T13:25:46;25.40;80.70
48686;DHT22;34485;51.536;3.816;2023-07-29T13:28:12;25.20;84.10
48686;DHT22;34485;51.536;3.816;2023-07-29T13:30:40;25.00;82.70
48686;DHT22;34485;51.536;3.816;2023-07-29T13:33:09;24.90;83.50
48686;DHT22;34485;51.536;3.816;2023-07-29T13:35:34;24.80;84.60
48686;DHT22;34485;51.536;3.816;2023-07-29T13:38:01;24.90;84.20
48686;DHT22;34485;51.536;3.816;2023-07-29T13:40:26;24.80;83.90
48686;DHT22;34485;51.536;3.816;2023-07-29T13:42:52;25.00;87.40
48686;DHT22;34485;51.536;3.816;2023-07-29T13:45:18;25.10;84.30
48686;DHT22;34485;51.536;3.816;2023-07-29T13:47:44;25.10;85.90
48686;DHT22;34485;51.536;3.816;2023-07-29T13:50:09;25.20;86.80
48686;DHT22;34485;51.536;3.816;2023-07-29T13:52:36;25.40;85.80
48686;DHT22;34485;51.536;3.816;2023-07-29T13:55:03;25.40;85.20
48686;DHT22;34485;51.536;3.816;2023-07-29T13:57:29;25.40;83.40
48686;DHT22;34485;51.536;3.816;2023-07-29T13:59:54;25.30;85.40
48686;DHT22;34485;51.536;3.816;2023-07-29T14:02:20;25.20;86.20
48686;DHT22;34485;51.536;3.816;2023-07-29T14:04:46;25.20;86.10
48686;DHT22;34485;51.536;3.816;2023-07-29T14:07:11;25.30;85.20
48686;DHT22;34485;51.536;3.816;2023-07-29T14:09:37;25.30;83.90
48686;DHT22;34485;51.536;3.816;2023-07-29T14:12:04;25.30;85.20
48686;DHT22;34485;51.536;3.816;2023-07-29T14:14:30;25.40;82.70
48686;DHT22;34485;51.536;3.816;2023-07-29T14:16:55;25.40;82.40
48686;DHT22;34485;51.536;3.816;2023-07-29T14:19:21;25.30;84.90
48686;DHT22;34485;51.536;3.816;2023-07-29T14:21:47;25.20;85.10
48686;DHT22;34485;51.536;3.816;2023-07-29T14:24:13;25.10;84.40
48686;DHT22;34485;51.536;3.816;2023-07-29T14:26:38;24.90;83.90
48686;DHT22;34485;51.536;3.816;2023-07-29T14:29:04;24.50;85.20
48686;DHT22;34485;51.536;3.816;2023-07-29T14:31:30;24.40;88.70
48686;DHT22;34485;51.536;3.816;2023-07-29T14:33:55;24.20;89.70
48686;DHT22;34485;51.536;3.816;2023-07-29T14:36:21;24.10;90.10
48686;DHT22;34485;51.536;3.816;2023-07-29T14:38:46;24.10;90.70
48686;DHT22;34485;51.536;3.816;2023-07-29T14:41:12;24.30;90.90
48686;DHT22;34485;51.536;3.816;2023-07-29T14:43:38;24.50;89.90
48686;DHT22;34485;51.536;3.816;2023-07-29T14:46:04;24.40;86.80
48686;DHT22;34485;51.536;3.816;2023-07-29T14:48:30;24.40;88.20
48686;DHT22;34485;51.536;3.816;2023-07-29T14:50:56;24.50;88.80
48686;DHT22;34485;51.536;3.816;2023-07-29T14:53:21;24.70;87.00
48686;DHT22;34485;51.536;3.816;2023-07-29T14:55:47;24.80;88.60
48686;DHT22;34485;51.536;3.816;2023-07-29T14:58:12;24.80;87.90
48686;DHT22;34485;51.536;3.816;2023-07-29T15:00:38;24.90;87.70
48686;DHT22;34485;51.536;3.816;2023-07-29T15:03:04;25.00;88.30
48686;DHT22;34485;51.536;3.816;2023-07-29T15:05:29;25.20;87.00
48686;DHT22;34485;51.536;3.816;2023-07-29T15:07:55;25.30;86.20
48686;DHT22;34485;51.536;3.816;2023-07-29T15:10:20;25.20;84.60
48686;DHT22;34485;51.536;3.816;2023-07-29T15:12:47;25.10;83.40
48686;DHT22;34485;51.536;3.816;2023-07-29T15:15:12;24.80;83.20
48686;DHT22;34485;51.536;3.816;2023-07-29T15:17:38;24.60;83.50
48686;DHT22;34485;51.536;3.816;2023-07-29T15:20:04;24.50;81.70
48686;DHT22;34485;51.536;3.816;2023-07-29T15:22:30;24.40;81.80
48686;DHT22;34485;51.536;3.816;2023-07-29T15:24:59;24.30;82.20
48686;DHT22;34485;51.536;3.816;2023-07-29T15:27:28;24.10;80.50
48686;DHT22;34485;51.536;3.816;2023-07-29T15:29:54;24.10;77.70
48686;DHT22;34485;51.536;3.816;2023-07-29T15:32:20;24.00;79.40
48686;DHT22;34485;51.536;3.816;2023-07-29T15:34:46;23.90;79.90
48686;DHT22;34485;51.536;3.816;2023-07-29T15:37:11;23.90;80.90
48686;DHT22;34485;51.536;3.816;2023-07-29T15:39:37;23.80;80.00
48686;DHT22;34485;51.536;3.816;2023-07-29T15:42:03;23.80;79.80
48686;DHT22;34485;51.536;3.816;2023-07-29T15:44:28;23.70;79.90
48686;DHT22;34485;51.536;3.816;2023-07-29T15:46:54;23.60;78.50